createdAt,value
2023-02-17T00:00:33.638Z,90.69
2023-02-17T00:03:00.580Z,91.05
2023-02-17T00:05:28.444Z,91.22
2023-02-17T00:07:55.482Z,90.80
2023-02-17T00:10:22.278Z,91.46
2023-02-17T00:12:49.037Z,91.21
2023-02-17T00:15:16.072Z,90.50
2023-02-17T00:17:42.910Z,90.80
2023-02-17T00:20:10.182Z,90.76
2023-02-17T00:22:37.013Z,90.95
2023-02-17T00:25:03.998Z,92.03
2023-02-17T00:27:30.901Z,91.42
2023-02-17T00:29:57.924Z,92.24
2023-02-17T00:32:26.729Z,91.72
2023-02-17T00:34:56.343Z,91.06
2023-02-17T00:37:23.208Z,92.20
2023-02-17T00:39:50.006Z,91.81
2023-02-17T00:42:19.407Z,92.12
2023-02-17T00:44:46.522Z,91.96
2023-02-17T00:47:13.691Z,91.56
2023-02-17T00:49:40.636Z,92.41
2023-02-17T00:52:07.621Z,91.77
2023-02-17T00:54:34.481Z,92.47
2023-02-17T00:57:02.071Z,92.71
2023-02-17T00:59:31.029Z,91.75
2023-02-17T01:01:57.994Z,91.76
2023-02-17T01:04:24.972Z,92.56
2023-02-17T01:06:51.832Z,92.48
2023-02-17T01:09:18.701Z,92.22
2023-02-17T01:11:45.623Z,91.15
2023-02-17T01:14:13.716Z,91.38
2023-02-17T01:16:43.773Z,91.42
2023-02-17T01:19:14.149Z,90.09
2023-02-17T01:21:41.021Z,90.24
2023-02-17T01:24:11.646Z,89.69
2023-02-17T01:26:39.405Z,89.87
2023-02-17T01:29:09.584Z,90.41
2023-02-17T01:31:37.082Z,90.21
2023-02-17T01:34:04.564Z,90.22
2023-02-17T01:36:31.977Z,90.53
2023-02-17T01:38:58.972Z,90.54
2023-02-17T01:41:27.856Z,90.79
2023-02-17T01:44:24.525Z,91.29
2023-02-17T01:46:53.943Z,91.18
2023-02-17T01:49:32.827Z,91.58
2023-02-17T01:52:04.887Z,91.76
2023-02-17T01:54:46.109Z,91.04
2023-02-17T01:57:16.133Z,91.39
2023-02-17T01:59:44.172Z,91.55
2023-02-17T02:02:11.760Z,91.08
2023-02-17T02:04:43.856Z,91.90
2023-02-17T02:07:16.122Z,92.26
2023-02-17T02:09:54.227Z,92.49
2023-02-17T02:12:24.163Z,92.42
2023-02-17T02:14:52.166Z,92.01
2023-02-17T02:17:28.155Z,91.72
2023-02-17T02:20:19.080Z,91.99
2023-02-17T02:22:49.046Z,91.70
2023-02-17T02:25:53.114Z,91.87
2023-02-17T02:29:04.786Z,91.97
2023-02-17T02:31:56.125Z,91.44
2023-02-17T02:34:34.714Z,91.90
2023-02-17T02:37:13.832Z,92.01
2023-02-17T02:39:44.374Z,92.09
2023-02-17T02:42:14.446Z,91.47
2023-02-17T02:44:41.959Z,91.56
2023-02-17T02:47:32.371Z,90.97
2023-02-17T02:49:59.452Z,90.90
2023-02-17T02:52:48.449Z,90.79
2023-02-17T02:55:34.568Z,90.74
2023-02-17T02:58:17.968Z,90.85
2023-02-17T03:00:58.983Z,91.07
2023-02-17T03:03:36.268Z,90.72
2023-02-17T03:06:16.746Z,90.44
2023-02-17T03:08:46.509Z,90.24
2023-02-17T03:11:13.481Z,90.38
2023-02-17T03:13:41.188Z,89.85
2023-02-17T03:16:14.686Z,89.35
2023-02-17T03:18:42.242Z,89.26
2023-02-17T03:21:16.936Z,89.33
2023-02-17T03:23:43.845Z,88.99
2023-02-17T03:26:10.661Z,88.42
2023-02-17T03:28:37.509Z,88.58
2023-02-17T03:31:04.599Z,88.45
2023-02-17T03:33:31.490Z,88.15
2023-02-17T03:35:58.425Z,88.23
2023-02-17T03:38:25.319Z,87.57
2023-02-17T03:40:53.855Z,87.46
2023-02-17T03:43:20.738Z,87.27
2023-02-17T03:45:47.617Z,87.76
2023-02-17T03:48:14.589Z,87.86
2023-02-17T03:50:41.347Z,87.77
2023-02-17T03:53:08.238Z,88.62
2023-02-17T03:55:35.067Z,88.08
2023-02-17T03:58:01.930Z,88.56
2023-02-17T04:00:28.877Z,87.76
2023-02-17T04:02:57.125Z,85.94
2023-02-17T04:05:24.280Z,84.94
2023-02-17T04:07:51.440Z,84.83
2023-02-17T04:10:18.439Z,83.67
2023-02-17T04:12:45.383Z,82.21
2023-02-17T04:15:12.237Z,82.43
2023-02-17T04:17:39.190Z,81.63
2023-02-17T04:20:07.842Z,79.45
2023-02-17T04:22:34.715Z,79.72
2023-02-17T04:25:01.526Z,79.38
2023-02-17T04:27:28.437Z,76.82
2023-02-17T04:29:55.298Z,74.41
2023-02-17T04:32:22.200Z,72.22
2023-02-17T04:34:49.003Z,71.24
2023-02-17T04:37:15.814Z,69.73
2023-02-17T04:39:42.743Z,67.81
2023-02-17T04:42:09.603Z,66.92
2023-02-17T04:44:36.435Z,66.85
2023-02-17T04:47:03.352Z,66.54
2023-02-17T04:49:30.188Z,64.54
2023-02-17T04:51:57.050Z,65.04
2023-02-17T04:54:23.801Z,65.18
2023-02-17T04:56:50.618Z,64.11
2023-02-17T04:59:17.428Z,64.06
2023-02-17T05:01:44.279Z,62.72
2023-02-17T05:04:11.105Z,61.55
2023-02-17T05:06:37.981Z,61.21
2023-02-17T05:09:04.805Z,60.53
2023-02-17T05:11:31.716Z,59.90
2023-02-17T05:13:58.554Z,59.54
2023-02-17T05:16:25.475Z,59.17
2023-02-17T05:18:52.325Z,57.27
2023-02-17T05:21:19.223Z,57.03
2023-02-17T05:23:46.057Z,57.23
2023-02-17T05:26:14.259Z,58.92
2023-02-17T05:28:41.024Z,58.71
2023-02-17T05:31:08.003Z,59.56
2023-02-17T05:33:34.981Z,59.48
2023-02-17T05:36:07.185Z,58.87
2023-02-17T05:38:36.016Z,55.72
2023-02-17T05:41:03.134Z,55.75
2023-02-17T05:43:30.379Z,57.22
2023-02-17T05:45:57.301Z,56.47
2023-02-17T05:48:24.058Z,56.95
2023-02-17T05:50:51.038Z,56.00
2023-02-17T05:53:18.108Z,56.75
2023-02-17T05:55:44.830Z,57.29
2023-02-17T05:58:11.648Z,57.78
2023-02-17T06:00:38.430Z,58.77
2023-02-17T06:03:05.260Z,59.27
2023-02-17T06:05:32.096Z,59.68
2023-02-17T06:07:59.157Z,58.99
2023-02-17T06:10:25.947Z,58.71
2023-02-17T06:12:52.822Z,58.32
2023-02-17T06:15:19.762Z,57.98
2023-02-17T06:17:46.698Z,58.77
2023-02-17T06:20:14.182Z,58.76
2023-02-17T06:22:41.769Z,59.86
2023-02-17T06:25:08.902Z,60.00
2023-02-17T06:27:36.180Z,60.04
2023-02-17T06:30:03.187Z,59.76
2023-02-17T06:32:30.026Z,58.50
2023-02-17T06:34:56.861Z,58.31
2023-02-17T06:37:23.741Z,57.12
2023-02-17T06:39:50.571Z,57.71
2023-02-17T06:42:17.472Z,59.30
2023-02-17T06:44:44.326Z,59.31
2023-02-17T06:47:11.148Z,59.58
2023-02-17T06:49:40.456Z,58.78
2023-02-17T06:52:07.682Z,59.45
2023-02-17T06:54:34.499Z,59.16
2023-02-17T06:57:01.328Z,59.81
2023-02-17T06:59:28.177Z,59.93
2023-02-17T07:01:55.083Z,60.02
2023-02-17T07:04:22.043Z,60.56
2023-02-17T07:06:48.887Z,59.90
2023-02-17T07:09:15.742Z,59.64
2023-02-17T07:11:44.713Z,60.12
2023-02-17T07:14:11.863Z,60.53
2023-02-17T07:16:39.698Z,61.35
2023-02-17T07:19:06.542Z,62.13
2023-02-17T07:21:33.378Z,62.48
2023-02-17T07:24:00.206Z,63.17
2023-02-17T07:26:27.081Z,62.06
2023-02-17T07:28:53.882Z,62.91
2023-02-17T07:31:20.838Z,63.13
2023-02-17T07:33:56.543Z,63.23
2023-02-17T07:36:23.581Z,63.99
2023-02-17T07:38:50.337Z,63.98
2023-02-17T07:41:19.559Z,64.62
2023-02-17T07:43:47.634Z,65.40
2023-02-17T07:46:18.627Z,64.91
2023-02-17T07:48:46.924Z,66.02
2023-02-17T07:51:17.314Z,66.99
2023-02-17T07:53:44.254Z,66.54
2023-02-17T07:56:13.646Z,66.88
2023-02-17T07:58:42.089Z,67.82
2023-02-17T08:01:10.794Z,67.92
2023-02-17T08:03:37.978Z,67.81
2023-02-17T08:06:05.757Z,68.37
2023-02-17T08:08:51.110Z,67.09
2023-02-17T08:11:36.942Z,66.77
2023-02-17T08:14:04.111Z,66.55
2023-02-17T08:16:30.961Z,66.26
2023-02-17T08:18:58.161Z,67.04
2023-02-17T08:21:26.917Z,66.98
2023-02-17T08:23:54.399Z,65.90
2023-02-17T08:26:21.440Z,65.26
2023-02-17T08:28:49.364Z,65.32
2023-02-17T08:31:20.589Z,65.07
2023-02-17T08:33:50.409Z,65.77
2023-02-17T08:36:17.865Z,64.68
2023-02-17T08:38:50.284Z,65.19
2023-02-17T08:41:21.916Z,64.07
2023-02-17T08:43:51.155Z,64.38
2023-02-17T08:46:19.327Z,64.56
2023-02-17T08:48:46.489Z,64.15
2023-02-17T08:51:14.864Z,64.54
2023-02-17T08:53:42.919Z,64.21
2023-02-17T08:56:09.772Z,64.41
2023-02-17T08:58:36.866Z,65.21
2023-02-17T09:01:04.370Z,64.86
2023-02-17T09:03:34.983Z,65.06
2023-02-17T09:06:02.065Z,66.28
2023-02-17T09:08:29.016Z,65.85
2023-02-17T09:10:56.323Z,65.91
2023-02-17T09:13:23.264Z,65.38
2023-02-17T09:15:54.060Z,65.20
2023-02-17T09:18:21.787Z,65.79
2023-02-17T09:20:49.126Z,66.14
2023-02-17T09:23:16.279Z,66.79
2023-02-17T09:25:43.426Z,67.14
2023-02-17T09:28:10.797Z,67.50
2023-02-17T09:30:37.684Z,67.49
2023-02-17T09:33:05.536Z,66.77
2023-02-17T09:35:33.210Z,65.90
2023-02-17T09:38:00.898Z,66.35
2023-02-17T09:40:43.758Z,64.85
2023-02-17T09:43:27.841Z,65.59
2023-02-17T09:46:01.126Z,64.76
2023-02-17T09:48:31.405Z,64.37
2023-02-17T09:51:06.116Z,63.59
2023-02-17T09:53:51.370Z,62.82
2023-02-17T09:56:22.665Z,62.80
2023-02-17T09:59:09.042Z,62.19
2023-02-17T10:01:36.499Z,63.37
2023-02-17T10:04:08.952Z,63.16
2023-02-17T10:06:47.417Z,64.03
2023-02-17T10:09:22.201Z,65.42
2023-02-17T10:12:02.431Z,66.13
2023-02-17T10:14:33.668Z,66.51
2023-02-17T10:17:18.755Z,65.87
2023-02-17T10:19:54.639Z,66.05
2023-02-17T10:22:23.623Z,66.21
2023-02-17T10:24:50.674Z,65.49
2023-02-17T10:27:46.738Z,66.10
2023-02-17T10:30:28.985Z,65.47
2023-02-17T10:33:13.484Z,65.47
2023-02-17T10:35:52.439Z,65.26
2023-02-17T10:38:19.425Z,65.18
2023-02-17T10:40:48.014Z,64.69
2023-02-17T10:43:21.977Z,62.54
2023-02-17T10:45:51.735Z,62.89
2023-02-17T10:48:22.140Z,61.90
2023-02-17T10:50:49.754Z,61.86
2023-02-17T10:53:25.243Z,60.76
2023-02-17T10:56:04.278Z,61.78
2023-02-17T10:58:33.385Z,61.43
2023-02-17T11:01:02.735Z,62.14
2023-02-17T11:03:30.978Z,62.08
2023-02-17T11:06:26.170Z,61.01
2023-02-17T11:08:59.090Z,61.25
2023-02-17T11:11:28.503Z,59.71
2023-02-17T11:14:14.130Z,59.84
2023-02-17T11:16:47.182Z,60.43
2023-02-17T11:19:35.927Z,59.76
2023-02-17T11:22:05.970Z,59.91
2023-02-17T11:24:35.042Z,59.71
2023-02-17T11:27:05.389Z,59.28
2023-02-17T11:29:34.179Z,59.57
2023-02-17T11:32:02.436Z,58.65
2023-02-17T11:34:33.160Z,59.58
2023-02-17T11:37:12.152Z,59.48
2023-02-17T11:39:47.326Z,58.85
2023-02-17T11:42:24.246Z,58.74
2023-02-17T11:44:52.314Z,59.45
2023-02-17T11:47:44.256Z,59.24
2023-02-17T11:50:40.890Z,58.79
2023-02-17T11:53:20.803Z,58.44
2023-02-17T11:56:11.067Z,58.57
2023-02-17T11:58:50.081Z,58.75
2023-02-17T12:01:54.493Z,59.69
2023-02-17T12:04:28.569Z,58.91
2023-02-17T12:06:55.420Z,58.57
2023-02-17T12:09:52.996Z,58.73
2023-02-17T12:12:26.941Z,58.86
2023-02-17T12:15:18.800Z,59.20
2023-02-17T12:18:04.921Z,58.96
2023-02-17T12:21:17.262Z,57.54
2023-02-17T12:24:02.430Z,56.76
2023-02-17T12:26:43.715Z,55.19
2023-02-17T12:29:31.395Z,55.60
2023-02-17T12:32:32.612Z,55.91
2023-02-17T12:35:00.524Z,55.70
2023-02-17T12:37:31.219Z,56.08
2023-02-17T12:40:02.613Z,57.10
2023-02-17T12:42:36.539Z,57.31
2023-02-17T12:45:21.446Z,57.20
2023-02-17T12:47:57.901Z,57.07
2023-02-17T12:50:32.108Z,56.86
2023-02-17T12:53:02.505Z,56.59
2023-02-17T12:55:57.851Z,53.55
2023-02-17T12:58:33.590Z,52.75
2023-02-17T13:01:07.116Z,51.68
2023-02-17T13:03:35.732Z,50.53
2023-02-17T13:06:24.245Z,51.56
2023-02-17T13:09:22.266Z,52.21
2023-02-17T13:11:49.239Z,52.32
2023-02-17T13:14:28.335Z,51.74
2023-02-17T13:16:55.690Z,51.32
2023-02-17T13:19:34.402Z,50.79
2023-02-17T13:22:05.795Z,50.83
2023-02-17T13:24:40.192Z,49.56
2023-02-17T13:27:23.308Z,49.34
2023-02-17T13:30:22.327Z,46.51
2023-02-17T13:33:02.216Z,47.16
2023-02-17T13:35:33.240Z,46.26
2023-02-17T13:38:00.382Z,45.83
2023-02-17T13:40:30.488Z,45.49
2023-02-17T13:42:57.851Z,47.18
2023-02-17T13:45:39.986Z,47.00
2023-02-17T13:48:15.120Z,46.38
2023-02-17T13:50:47.985Z,46.78
2023-02-17T13:53:31.700Z,46.77
2023-02-17T13:56:07.602Z,47.23
2023-02-17T13:58:40.866Z,46.88
2023-02-17T14:01:18.726Z,45.84
2023-02-17T14:03:51.896Z,47.15
2023-02-17T14:06:37.990Z,45.22
2023-02-17T14:09:28.022Z,43.99
2023-02-17T14:11:55.976Z,44.42
2023-02-17T14:14:32.082Z,45.07
2023-02-17T14:17:04.695Z,46.98
2023-02-17T14:20:02.265Z,47.00
2023-02-17T14:22:31.839Z,46.22
2023-02-17T14:25:07.497Z,47.89
2023-02-17T14:27:47.926Z,45.65
2023-02-17T14:30:33.156Z,44.84
2023-02-17T14:33:03.188Z,45.52
2023-02-17T14:35:30.430Z,45.08
2023-02-17T14:38:07.972Z,44.39
2023-02-17T14:40:35.263Z,45.46
2023-02-17T14:43:02.104Z,45.90
2023-02-17T14:45:29.209Z,48.42
2023-02-17T14:47:57.460Z,47.98
2023-02-17T14:50:24.487Z,49.22
2023-02-17T14:52:52.591Z,50.37
2023-02-17T14:55:38.488Z,51.35
2023-02-17T14:58:05.729Z,51.92
2023-02-17T15:00:32.558Z,52.51
2023-02-17T15:02:59.492Z,54.12
2023-02-17T15:05:26.436Z,54.91
2023-02-17T15:07:53.453Z,55.94
2023-02-17T15:10:28.245Z,56.60
2023-02-17T15:12:56.055Z,54.21
2023-02-17T15:15:23.161Z,54.47
2023-02-17T15:17:52.960Z,54.80
2023-02-17T15:20:19.968Z,55.23
2023-02-17T15:22:47.188Z,55.92
2023-02-17T15:25:19.599Z,55.79
2023-02-17T15:27:47.350Z,56.26
2023-02-17T15:30:20.322Z,54.75
2023-02-17T15:32:47.611Z,52.95
2023-02-17T15:35:21.646Z,52.67
2023-02-17T15:37:48.940Z,53.82
2023-02-17T15:40:21.989Z,55.77
2023-02-17T15:43:03.538Z,56.40
2023-02-17T15:45:31.101Z,56.64
2023-02-17T15:48:05.255Z,58.28
2023-02-17T15:50:32.294Z,57.81
2023-02-17T15:52:59.247Z,59.11
2023-02-17T15:55:28.471Z,59.33
2023-02-17T15:57:57.961Z,59.54
2023-02-17T16:00:27.202Z,61.08
2023-02-17T16:02:54.587Z,61.55
2023-02-17T16:05:24.220Z,61.65
2023-02-17T16:07:51.118Z,61.14
2023-02-17T16:10:20.629Z,60.53
2023-02-17T16:12:48.806Z,60.95
2023-02-17T16:15:18.250Z,60.87
2023-02-17T16:17:45.971Z,60.89
2023-02-17T16:20:24.416Z,60.15
2023-02-17T16:22:52.182Z,61.96
2023-02-17T16:25:20.252Z,61.73
2023-02-17T16:27:48.808Z,61.49
2023-02-17T16:30:16.725Z,61.17
2023-02-17T16:32:43.719Z,60.45
2023-02-17T16:35:15.728Z,61.17
2023-02-17T16:37:46.482Z,61.15
2023-02-17T16:40:16.166Z,61.13
2023-02-17T16:42:43.592Z,61.39
2023-02-17T16:45:15.714Z,61.96
2023-02-17T16:47:45.736Z,62.11
2023-02-17T16:50:19.532Z,62.06
2023-02-17T16:52:46.549Z,62.39
2023-02-17T16:55:18.524Z,62.61
2023-02-17T16:57:46.450Z,63.32
2023-02-17T17:00:16.901Z,62.73
2023-02-17T17:02:45.099Z,62.67
2023-02-17T17:05:12.977Z,62.19
2023-02-17T17:07:40.698Z,62.52
2023-02-17T17:10:16.531Z,63.04
2023-02-17T17:12:45.100Z,63.31
2023-02-17T17:15:12.463Z,62.90
2023-02-17T17:18:00.784Z,63.88
2023-02-17T17:20:34.202Z,62.90
2023-02-17T17:23:10.196Z,62.94
2023-02-17T17:25:42.791Z,63.50
2023-02-17T17:28:14.735Z,62.90
2023-02-17T17:30:41.911Z,63.47
2023-02-17T17:33:08.747Z,64.16
2023-02-17T17:35:36.034Z,64.26
2023-02-17T17:38:03.126Z,64.01
2023-02-17T17:40:48.563Z,64.30
2023-02-17T17:43:17.604Z,64.74
2023-02-17T17:45:44.690Z,63.53
2023-02-17T17:48:13.913Z,65.57
2023-02-17T17:50:41.376Z,63.59
2023-02-17T17:53:08.802Z,63.54
2023-02-17T17:55:36.511Z,64.25
2023-02-17T17:58:03.409Z,64.12
2023-02-17T18:00:30.409Z,63.29
2023-02-17T18:02:58.451Z,63.29
2023-02-17T18:05:25.601Z,63.45
2023-02-17T18:07:52.907Z,63.45
2023-02-17T18:10:19.822Z,63.02
2023-02-17T18:12:48.034Z,63.77
2023-02-17T18:15:16.023Z,63.89
2023-02-17T18:17:43.445Z,64.53
2023-02-17T18:20:12.038Z,64.59
2023-02-17T18:22:39.835Z,64.26
2023-02-17T18:25:07.228Z,64.32
2023-02-17T18:27:39.289Z,64.29
2023-02-17T18:30:07.103Z,64.09
2023-02-17T18:32:34.011Z,64.37
2023-02-17T18:35:01.344Z,64.48
2023-02-17T18:37:28.735Z,64.74
2023-02-17T18:39:55.694Z,65.18
2023-02-17T18:42:22.682Z,64.98
2023-02-17T18:44:49.638Z,64.75
2023-02-17T18:47:16.500Z,64.93
2023-02-17T18:49:43.348Z,63.17
2023-02-17T18:52:10.283Z,64.29
2023-02-17T18:54:44.097Z,63.52
2023-02-17T18:57:11.557Z,64.21
2023-02-17T18:59:38.421Z,64.43
2023-02-17T19:02:06.746Z,64.33
2023-02-17T19:04:33.650Z,64.29
2023-02-17T19:07:03.537Z,64.28
2023-02-17T19:09:32.939Z,64.41
2023-02-17T19:12:04.654Z,63.61
2023-02-17T19:14:32.586Z,63.47
2023-02-17T19:16:59.649Z,63.66
2023-02-17T19:19:29.638Z,63.81
2023-02-17T19:21:56.568Z,64.51
2023-02-17T19:24:23.532Z,63.54
2023-02-17T19:26:50.431Z,65.13
2023-02-17T19:29:17.481Z,65.08
2023-02-17T19:31:44.679Z,64.45
2023-02-17T19:34:11.704Z,64.24
2023-02-17T19:36:38.492Z,65.46
2023-02-17T19:39:24.879Z,64.99
2023-02-17T19:41:57.651Z,66.18
2023-02-17T19:44:24.950Z,64.97
2023-02-17T19:46:51.909Z,64.50
2023-02-17T19:49:18.881Z,65.27
2023-02-17T19:51:45.881Z,64.97
2023-02-17T19:54:12.870Z,65.72
2023-02-17T19:56:39.840Z,65.66
2023-02-17T19:59:06.773Z,65.11
2023-02-17T20:01:34.328Z,65.40
2023-02-17T20:04:04.088Z,66.44
2023-02-17T20:06:37.666Z,66.10
2023-02-17T20:09:06.739Z,65.91
2023-02-17T20:11:33.852Z,68.26
2023-02-17T20:14:01.705Z,66.66
2023-02-17T20:16:29.866Z,66.79
2023-02-17T20:18:57.094Z,67.10
2023-02-17T20:21:26.142Z,66.92
2023-02-17T20:23:53.162Z,66.22
2023-02-17T20:26:23.840Z,66.72
2023-02-17T20:28:51.128Z,66.50
2023-02-17T20:31:18.782Z,67.54
2023-02-17T20:33:46.616Z,67.13
2023-02-17T20:36:13.683Z,67.72
2023-02-17T20:38:41.294Z,67.55
2023-02-17T20:41:09.424Z,67.10
2023-02-17T20:43:37.660Z,67.43
2023-02-17T20:46:05.523Z,67.16
2023-02-17T20:48:33.567Z,67.83
2023-02-17T20:51:00.732Z,68.43
2023-02-17T20:53:27.765Z,67.19
2023-02-17T20:55:54.700Z,68.48
2023-02-17T20:58:21.594Z,68.64
2023-02-17T21:00:48.805Z,68.79
2023-02-17T21:03:15.865Z,68.64
2023-02-17T21:05:42.866Z,68.30
2023-02-17T21:08:10.058Z,67.82
2023-02-17T21:10:39.878Z,68.62
2023-02-17T21:13:06.814Z,68.01
2023-02-17T21:15:34.184Z,67.59
2023-02-17T21:18:01.120Z,67.55
2023-02-17T21:20:28.235Z,66.96
2023-02-17T21:22:55.133Z,67.97
2023-02-17T21:25:22.019Z,68.09
2023-02-17T21:27:49.065Z,67.59
2023-02-17T21:30:16.054Z,68.07
2023-02-17T21:32:43.198Z,68.52
2023-02-17T21:35:11.372Z,68.08
2023-02-17T21:37:39.117Z,67.86
2023-02-17T21:40:09.946Z,67.71
2023-02-17T21:42:56.587Z,68.59
2023-02-17T21:45:24.680Z,69.29
2023-02-17T21:47:51.772Z,68.11
2023-02-17T21:50:19.217Z,69.76
2023-02-17T21:52:46.113Z,69.43
2023-02-17T21:55:13.353Z,69.06
2023-02-17T21:57:40.225Z,69.49
2023-02-17T22:00:08.933Z,70.28
2023-02-17T22:02:39.296Z,70.70
2023-02-17T22:05:06.907Z,71.06
2023-02-17T22:07:33.788Z,70.79
2023-02-17T22:10:00.780Z,70.95
2023-02-17T22:12:27.977Z,71.02
2023-02-17T22:14:54.943Z,70.60
2023-02-17T22:17:21.989Z,71.16
2023-02-17T22:19:48.858Z,70.35
2023-02-17T22:22:15.672Z,70.67
2023-02-17T22:24:42.614Z,70.56
2023-02-17T22:27:09.445Z,70.98
2023-02-17T22:29:36.371Z,70.64
2023-02-17T22:32:03.535Z,70.51
2023-02-17T22:34:30.710Z,70.48
2023-02-17T22:36:57.633Z,70.42
2023-02-17T22:39:24.521Z,70.21
2023-02-17T22:41:52.582Z,69.66
2023-02-17T22:44:19.805Z,68.89
2023-02-17T22:46:46.650Z,68.89
2023-02-17T22:49:14.388Z,69.50
2023-02-17T22:51:41.459Z,68.38
2023-02-17T22:54:09.125Z,67.60
2023-02-17T22:56:37.145Z,67.62
2023-02-17T22:59:05.949Z,68.50
2023-02-17T23:01:35.148Z,68.63
2023-02-17T23:04:02.302Z,69.21
2023-02-17T23:06:31.952Z,68.76
2023-02-17T23:08:59.576Z,68.84
2023-02-17T23:11:47.232Z,69.88
2023-02-17T23:14:15.934Z,69.81
2023-02-17T23:16:43.403Z,70.06
2023-02-17T23:19:12.460Z,70.78
2023-02-17T23:21:43.723Z,69.54
2023-02-17T23:24:10.807Z,71.17
2023-02-17T23:26:38.575Z,70.53
2023-02-17T23:29:06.625Z,70.68
2023-02-17T23:31:34.146Z,71.24
2023-02-17T23:34:01.037Z,71.04
2023-02-17T23:36:27.971Z,70.65
2023-02-17T23:38:55.854Z,69.96
2023-02-17T23:41:23.024Z,70.64
2023-02-17T23:43:49.963Z,69.86
2023-02-17T23:46:16.991Z,70.66
2023-02-17T23:48:43.960Z,71.25
2023-02-17T23:51:15.693Z,71.20
2023-02-17T23:53:42.810Z,70.65
2023-02-17T23:56:18.580Z,69.74
2023-02-17T23:58:45.573Z,70.00
